createdAt,value
2019-03-24T00:01:26.181Z,98946.30
2019-03-24T00:03:56.978Z,98958.69
2019-03-24T00:06:27.733Z,98956.89
2019-03-24T00:08:58.474Z,98956.17
2019-03-24T00:11:29.646Z,98953.22
2019-03-24T00:14:00.375Z,98956.23
2019-03-24T00:16:31.204Z,98957.04
2019-03-24T00:19:01.969Z,98954.81
2019-03-24T00:21:32.748Z,98955.72
2019-03-24T00:24:03.481Z,98950.92
2019-03-24T00:26:34.194Z,98952.21
2019-03-24T00:29:05.078Z,98945.41
2019-03-24T00:31:35.851Z,98950.22
2019-03-24T00:34:06.774Z,98946.70
2019-03-24T00:36:37.503Z,98947.88
2019-03-24T00:39:08.999Z,98943.31
2019-03-24T00:41:39.785Z,98938.84
2019-03-24T00:44:10.632Z,98941.37
2019-03-24T00:46:41.345Z,98936.58
2019-03-24T00:49:12.462Z,98932.23
2019-03-24T00:51:43.341Z,98933.84
2019-03-24T00:54:14.143Z,98930.52
2019-03-24T00:56:44.921Z,98926.50
2019-03-24T00:59:16.103Z,98928.81
2019-03-24T01:01:46.823Z,98924.83
2019-03-24T01:04:17.664Z,98921.86
2019-03-24T01:06:48.743Z,98912.59
2019-03-24T01:09:19.640Z,98922.11
2019-03-24T01:11:50.447Z,98923.25
2019-03-24T01:14:21.244Z,98916.17
2019-03-24T01:16:52.050Z,98918.92
2019-03-24T01:19:22.925Z,98917.06
2019-03-24T01:21:53.744Z,98910.79
2019-03-24T01:24:24.490Z,98905.33
2019-03-24T01:26:55.260Z,98903.14
2019-03-24T01:29:26.128Z,98899.82
2019-03-24T01:31:56.858Z,98893.88
2019-03-24T01:34:27.677Z,98895.50
2019-03-24T01:36:58.556Z,98896.52
2019-03-24T01:39:29.313Z,98890.88
2019-03-24T01:42:00.469Z,98893.30
2019-03-24T01:44:31.243Z,98893.41
2019-03-24T01:47:02.003Z,98897.43
2019-03-24T01:49:32.717Z,98904.28
2019-03-24T01:52:03.568Z,98897.66
2019-03-24T01:54:34.306Z,98895.94
2019-03-24T01:57:05.123Z,98888.41
2019-03-24T01:59:35.853Z,98890.36
2019-03-24T02:02:07.880Z,98892.77
2019-03-24T02:04:38.608Z,98894.69
2019-03-24T02:07:09.419Z,98886.59
2019-03-24T02:09:40.399Z,98885.09
2019-03-24T02:12:11.261Z,98876.75
2019-03-24T02:14:42.036Z,98884.30
2019-03-24T02:17:12.839Z,98879.73
2019-03-24T02:19:43.655Z,98876.20
2019-03-24T02:22:14.514Z,98875.04
2019-03-24T02:24:45.263Z,98874.94
2019-03-24T02:27:16.154Z,98873.31
2019-03-24T02:29:46.882Z,98871.03
2019-03-24T02:32:17.846Z,98870.25
2019-03-24T02:34:48.830Z,98871.83
2019-03-24T02:37:19.616Z,98868.86
2019-03-24T02:39:50.328Z,98875.04
2019-03-24T02:42:21.072Z,98871.72
2019-03-24T02:44:52.080Z,98873.75
2019-03-24T02:47:22.847Z,98870.31
2019-03-24T02:49:53.553Z,98872.37
2019-03-24T02:52:24.269Z,98875.13
2019-03-24T02:54:54.998Z,98874.01
2019-03-24T02:57:25.817Z,98875.13
2019-03-24T02:59:56.540Z,98884.73
2019-03-24T03:02:27.768Z,98880.73
2019-03-24T03:04:58.598Z,98875.11
2019-03-24T03:07:29.416Z,98876.94
2019-03-24T03:10:00.461Z,98879.05
2019-03-24T03:12:31.245Z,98876.66
2019-03-24T03:15:01.984Z,98871.02
2019-03-24T03:17:32.839Z,98875.56
2019-03-24T03:20:04.184Z,98879.14
2019-03-24T03:22:34.924Z,98871.90
2019-03-24T03:25:06.476Z,98876.81
2019-03-24T03:27:37.275Z,98879.80
2019-03-24T03:30:09.809Z,98876.73
2019-03-24T03:32:40.690Z,98868.88
2019-03-24T03:35:11.731Z,98880.28
2019-03-24T03:37:42.987Z,98870.42
2019-03-24T03:40:14.037Z,98871.75
2019-03-24T03:42:44.769Z,98869.27
2019-03-24T03:45:23.833Z,98872.36
2019-03-24T03:47:54.604Z,98880.47
2019-03-24T03:50:25.420Z,98872.96
2019-03-24T03:52:56.335Z,98864.94
2019-03-24T03:55:27.089Z,98874.69
2019-03-24T03:57:57.859Z,98877.62
2019-03-24T04:00:35.126Z,98871.75
2019-03-24T04:03:06.907Z,98869.27
2019-03-24T04:05:37.913Z,98866.80
2019-03-24T04:08:09.195Z,98863.53
2019-03-24T04:10:39.997Z,98851.66
2019-03-24T04:13:10.795Z,98860.17
2019-03-24T04:15:41.538Z,98854.36
2019-03-24T04:18:12.406Z,98851.23
2019-03-24T04:20:43.228Z,98853.98
2019-03-24T04:23:14.066Z,98851.30
2019-03-24T04:25:44.862Z,98857.19
2019-03-24T04:28:15.626Z,98853.02
2019-03-24T04:30:46.334Z,98859.92
2019-03-24T04:33:17.108Z,98862.95
2019-03-24T04:35:47.889Z,98856.46
2019-03-24T04:38:19.142Z,98855.79
2019-03-24T04:40:50.121Z,98859.62
2019-03-24T04:43:20.879Z,98855.37
2019-03-24T04:45:51.620Z,98855.09
2019-03-24T04:48:22.368Z,98853.31
2019-03-24T04:50:53.237Z,98846.62
2019-03-24T04:53:24.880Z,98846.72
2019-03-24T04:55:56.369Z,98843.30
2019-03-24T04:58:27.118Z,98847.29
2019-03-24T05:00:58.057Z,98854.30
2019-03-24T05:03:28.769Z,98856.34
2019-03-24T05:05:59.478Z,98856.50
2019-03-24T05:08:31.260Z,98857.75
2019-03-24T05:11:02.800Z,98866.92
2019-03-24T05:13:33.543Z,98870.31
2019-03-24T05:16:05.437Z,98860.22
2019-03-24T05:18:36.184Z,98863.63
2019-03-24T05:21:07.000Z,98862.63
2019-03-24T05:23:37.741Z,98864.40
2019-03-24T05:26:09.065Z,98868.16
2019-03-24T05:28:39.762Z,98867.23
2019-03-24T05:31:10.562Z,98861.73
2019-03-24T05:33:41.304Z,98856.41
2019-03-24T05:36:12.653Z,98859.98
2019-03-24T05:38:43.367Z,98856.22
2019-03-24T05:41:15.271Z,98857.59
2019-03-24T05:43:47.029Z,98857.74
2019-03-24T05:46:18.254Z,98857.53
2019-03-24T05:48:48.992Z,98856.63
2019-03-24T05:51:19.712Z,98861.75
2019-03-24T05:53:50.462Z,98861.50
2019-03-24T05:56:21.190Z,98864.72
2019-03-24T05:58:52.092Z,98866.58
2019-03-24T06:01:23.156Z,98861.82
2019-03-24T06:03:54.042Z,98868.61
2019-03-24T06:06:24.968Z,98868.09
2019-03-24T06:08:55.717Z,98873.34
2019-03-24T06:11:26.514Z,98872.33
2019-03-24T06:13:57.506Z,98875.78
2019-03-24T06:16:28.798Z,98866.32
2019-03-24T06:18:59.581Z,98873.69
2019-03-24T06:21:30.321Z,98870.36
2019-03-24T06:24:01.423Z,98866.27
2019-03-24T06:26:32.793Z,98862.84
2019-03-24T06:29:03.692Z,98870.84
2019-03-24T06:31:34.464Z,98864.70
2019-03-24T06:34:05.414Z,98864.73
2019-03-24T06:36:36.228Z,98864.11
2019-03-24T06:39:08.635Z,98862.36
2019-03-24T06:41:39.446Z,98860.92
2019-03-24T06:44:10.438Z,98860.06
2019-03-24T06:46:41.166Z,98871.13
2019-03-24T06:49:11.919Z,98866.33
2019-03-24T06:51:43.259Z,98870.48
2019-03-24T06:54:14.059Z,98860.41
2019-03-24T06:56:44.792Z,98863.66
2019-03-24T06:59:15.519Z,98869.05
2019-03-24T07:01:46.310Z,98867.16
2019-03-24T07:04:16.983Z,98868.19
2019-03-24T07:06:47.694Z,98862.39
2019-03-24T07:09:18.436Z,98859.02
2019-03-24T07:11:49.303Z,98866.22
2019-03-24T07:14:20.113Z,98856.31
2019-03-24T07:16:50.833Z,98855.53
2019-03-24T07:19:21.623Z,98861.86
2019-03-24T07:21:52.408Z,98864.31
2019-03-24T07:24:23.422Z,98860.86
2019-03-24T07:26:54.155Z,98848.25
2019-03-24T07:29:24.909Z,98854.86
2019-03-24T07:31:55.768Z,98857.65
2019-03-24T07:34:26.513Z,98847.31
2019-03-24T07:36:57.256Z,98852.66
2019-03-24T07:39:28.010Z,98848.77
2019-03-24T07:41:59.102Z,98848.16
2019-03-24T07:44:29.917Z,98846.86
2019-03-24T07:47:02.385Z,98847.95
2019-03-24T07:49:33.110Z,98843.25
2019-03-24T07:52:03.828Z,98836.75
2019-03-24T07:54:34.641Z,98832.69
2019-03-24T07:57:05.500Z,98831.81
2019-03-24T07:59:36.272Z,98828.92
2019-03-24T08:02:07.183Z,98827.47
2019-03-24T08:04:37.945Z,98821.47
2019-03-24T08:07:08.680Z,98827.05
2019-03-24T08:09:39.410Z,98826.31
2019-03-24T08:12:10.179Z,98823.39
2019-03-24T08:14:40.989Z,98826.33
2019-03-24T08:17:11.721Z,98831.30
2019-03-24T08:19:42.534Z,98832.18
2019-03-24T08:22:13.576Z,98829.68
2019-03-24T08:24:44.389Z,98830.95
2019-03-24T08:27:15.202Z,98833.88
2019-03-24T08:29:45.935Z,98828.05
2019-03-24T08:32:16.713Z,98821.78
2019-03-24T08:34:48.480Z,98822.98
2019-03-24T08:37:19.337Z,98822.27
2019-03-24T08:39:50.067Z,98820.41
2019-03-24T08:42:20.820Z,98812.45
2019-03-24T08:44:52.006Z,98824.29
2019-03-24T08:47:22.874Z,98823.22
2019-03-24T08:49:53.583Z,98820.47
2019-03-24T08:52:24.309Z,98823.44
2019-03-24T08:54:55.094Z,98807.95
2019-03-24T08:57:25.860Z,98799.46
2019-03-24T08:59:56.632Z,98801.70
2019-03-24T09:02:27.627Z,98798.58
2019-03-24T09:04:58.371Z,98784.03
2019-03-24T09:07:29.531Z,98778.73
2019-03-24T09:10:00.379Z,98777.45
2019-03-24T09:12:31.328Z,98784.84
2019-03-24T09:15:02.100Z,98771.66
2019-03-24T09:17:32.879Z,98769.66
2019-03-24T09:20:03.746Z,98766.14
2019-03-24T09:22:34.554Z,98763.00
2019-03-24T09:25:05.600Z,98762.42
2019-03-24T09:27:36.351Z,98754.66
2019-03-24T09:30:11.597Z,98756.36
2019-03-24T09:32:42.378Z,98747.12
2019-03-24T09:35:13.395Z,98744.59
2019-03-24T09:37:44.120Z,98746.77
2019-03-24T09:40:19.824Z,98737.69
2019-03-24T09:42:50.597Z,98742.05
2019-03-24T09:45:21.294Z,98735.11
2019-03-24T09:47:52.506Z,98731.00
2019-03-24T09:50:23.371Z,98738.60
2019-03-24T09:52:54.301Z,98732.18
2019-03-24T09:55:25.495Z,98725.23
2019-03-24T09:57:56.356Z,98726.27
2019-03-24T10:00:27.671Z,98722.13
2019-03-24T10:02:58.653Z,98722.14
2019-03-24T10:05:29.418Z,98714.64
2019-03-24T10:08:00.983Z,98705.95
2019-03-24T10:10:31.768Z,98699.64
2019-03-24T10:13:02.912Z,98695.23
2019-03-24T10:15:33.688Z,98689.24
2019-03-24T10:18:04.785Z,98692.97
2019-03-24T10:20:35.587Z,98692.23
2019-03-24T10:23:06.382Z,98683.86
2019-03-24T10:25:37.173Z,98679.95
2019-03-24T10:28:08.327Z,98678.18
2019-03-24T10:30:39.484Z,98682.06
2019-03-24T10:33:10.292Z,98681.89
2019-03-24T10:35:41.164Z,98671.20
2019-03-24T10:38:12.174Z,98675.45
2019-03-24T10:40:42.989Z,98667.01
2019-03-24T10:43:14.511Z,98662.89
2019-03-24T10:45:45.250Z,98665.38
2019-03-24T10:48:16.592Z,98668.77
2019-03-24T10:50:47.372Z,98668.90
2019-03-24T10:53:18.229Z,98669.59
2019-03-24T10:55:49.066Z,98662.30
2019-03-24T10:58:20.527Z,98663.29
2019-03-24T11:00:51.340Z,98663.66
2019-03-24T11:03:22.084Z,98664.88
2019-03-24T11:05:53.067Z,98656.46
2019-03-24T11:08:23.838Z,98660.69
2019-03-24T11:10:54.913Z,98654.60
2019-03-24T11:13:25.675Z,98658.85
2019-03-24T11:15:56.416Z,98660.00
2019-03-24T11:18:27.194Z,98663.59
2019-03-24T11:20:58.012Z,98660.42
2019-03-24T11:23:28.789Z,98660.17
2019-03-24T11:25:59.659Z,98661.27
2019-03-24T11:28:30.708Z,98651.37
2019-03-24T11:31:01.617Z,98657.81
2019-03-24T11:33:32.383Z,98661.02
2019-03-24T11:36:03.156Z,98665.82
2019-03-24T11:38:33.997Z,98661.04
2019-03-24T11:41:05.149Z,98656.36
2019-03-24T11:43:35.978Z,98662.48
2019-03-24T11:46:06.890Z,98660.16
2019-03-24T11:48:37.767Z,98653.61
2019-03-24T11:51:08.578Z,98649.30
2019-03-24T11:53:39.550Z,98636.07
2019-03-24T11:56:10.360Z,98642.16
2019-03-24T11:58:41.461Z,98643.67
2019-03-24T12:01:12.531Z,98639.92
2019-03-24T12:03:43.638Z,98633.67
2019-03-24T12:06:15.131Z,98629.74
2019-03-24T12:08:45.924Z,98632.93
2019-03-24T12:11:16.631Z,98628.44
2019-03-24T12:13:47.368Z,98623.38
2019-03-24T12:16:18.126Z,98618.25
2019-03-24T12:18:48.864Z,98618.41
2019-03-24T12:21:19.690Z,98616.75
2019-03-24T12:23:51.139Z,98607.87
2019-03-24T12:26:21.906Z,98608.59
2019-03-24T12:28:52.645Z,98601.58
2019-03-24T12:31:23.381Z,98596.16
2019-03-24T12:33:54.609Z,98587.33
2019-03-24T12:36:25.545Z,98587.52
2019-03-24T12:38:56.531Z,98589.66
2019-03-24T12:41:27.498Z,98582.06
2019-03-24T12:43:58.632Z,98576.70
2019-03-24T12:46:30.184Z,98570.76
2019-03-24T12:49:00.990Z,98566.75
2019-03-24T12:51:31.792Z,98568.37
2019-03-24T12:54:02.528Z,98564.41
2019-03-24T12:56:33.332Z,98560.80
2019-03-24T12:59:04.400Z,98551.31
2019-03-24T13:01:35.197Z,98547.53
2019-03-24T13:04:06.127Z,98543.11
2019-03-24T13:06:36.924Z,98545.30
2019-03-24T13:09:09.030Z,98543.73
2019-03-24T13:11:39.924Z,98536.80
2019-03-24T13:14:10.720Z,98537.87
2019-03-24T13:16:41.501Z,98543.23
2019-03-24T13:19:12.235Z,98543.10
2019-03-24T13:21:43.004Z,98539.99
2019-03-24T13:24:13.817Z,98540.08
2019-03-24T13:26:44.560Z,98527.05
2019-03-24T13:29:15.981Z,98536.09
2019-03-24T13:31:48.279Z,98534.72
2019-03-24T13:34:19.223Z,98527.37
2019-03-24T13:36:49.996Z,98531.45
2019-03-24T13:39:20.828Z,98526.91
2019-03-24T13:41:51.648Z,98526.97
2019-03-24T13:44:22.383Z,98527.44
2019-03-24T13:46:53.164Z,98528.00
2019-03-24T13:49:23.980Z,98532.44
2019-03-24T13:51:55.003Z,98523.04
2019-03-24T13:54:25.722Z,98531.09
2019-03-24T13:56:56.507Z,98525.77
2019-03-24T13:59:28.091Z,98528.41
2019-03-24T14:01:58.922Z,98514.28
2019-03-24T14:04:29.657Z,98520.13
2019-03-24T14:07:00.367Z,98512.16
2019-03-24T14:09:31.936Z,98514.64
2019-03-24T14:12:02.849Z,98519.92
2019-03-24T14:14:33.601Z,98521.75
2019-03-24T14:17:04.345Z,98516.50
2019-03-24T14:19:35.326Z,98518.69
2019-03-24T14:22:06.214Z,98518.44
2019-03-24T14:24:36.964Z,98528.30
2019-03-24T14:27:07.744Z,98535.42
2019-03-24T14:29:38.555Z,98527.59
2019-03-24T14:32:09.357Z,98529.02
2019-03-24T14:34:40.088Z,98530.66
2019-03-24T14:37:11.855Z,98535.68
2019-03-24T14:39:42.720Z,98535.13
2019-03-24T14:42:13.540Z,98529.91
2019-03-24T14:44:44.540Z,98528.52
2019-03-24T14:47:15.283Z,98535.80
2019-03-24T14:49:46.012Z,98537.25
2019-03-24T14:52:16.722Z,98530.75
2019-03-24T14:54:47.457Z,98545.35
2019-03-24T14:57:18.225Z,98538.67
2019-03-24T14:59:48.998Z,98541.83
2019-03-24T15:02:19.776Z,98541.78
2019-03-24T15:04:51.237Z,98548.98
2019-03-24T15:07:21.979Z,98552.94
2019-03-24T15:09:52.725Z,98548.77
2019-03-24T15:12:23.726Z,98537.27
2019-03-24T15:14:54.534Z,98539.13
2019-03-24T15:17:25.373Z,98532.37
2019-03-24T15:19:56.107Z,98543.10
2019-03-24T15:22:26.905Z,98536.39
2019-03-24T15:24:57.943Z,98543.68
2019-03-24T15:27:28.667Z,98541.86
2019-03-24T15:29:59.413Z,98539.58
2019-03-24T15:32:30.149Z,98536.73
2019-03-24T15:35:00.947Z,98545.30
2019-03-24T15:37:31.718Z,98534.23
2019-03-24T15:40:02.717Z,98544.27
2019-03-24T15:42:33.546Z,98536.58
2019-03-24T15:45:04.382Z,98542.02
2019-03-24T15:47:35.244Z,98543.21
2019-03-24T15:50:06.880Z,98541.47
2019-03-24T15:52:37.783Z,98551.88
2019-03-24T15:55:09.070Z,98550.10
2019-03-24T15:57:39.776Z,98552.37
2019-03-24T16:00:11.746Z,98551.88
2019-03-24T16:02:42.544Z,98549.22
2019-03-24T16:05:13.461Z,98556.83
2019-03-24T16:07:44.239Z,98552.02
2019-03-24T16:10:15.549Z,98552.77
2019-03-24T16:12:46.328Z,98559.80
2019-03-24T16:15:17.220Z,98555.95
2019-03-24T16:17:47.963Z,98565.23
2019-03-24T16:20:18.711Z,98555.67
2019-03-24T16:22:49.483Z,98562.94
2019-03-24T16:25:20.203Z,98562.05
2019-03-24T16:27:51.085Z,98558.41
2019-03-24T16:30:21.846Z,98554.75
2019-03-24T16:32:52.578Z,98561.01
2019-03-24T16:35:23.387Z,98562.08
2019-03-24T16:37:54.183Z,98564.91
2019-03-24T16:40:25.015Z,98574.16
2019-03-24T16:42:55.783Z,98567.14
2019-03-24T16:45:26.499Z,98563.97
2019-03-24T16:47:57.409Z,98567.70
2019-03-24T16:50:28.475Z,98575.42
2019-03-24T16:52:59.216Z,98570.47
2019-03-24T16:55:29.932Z,98577.95
2019-03-24T16:58:00.831Z,98576.39
2019-03-24T17:00:31.636Z,98581.10
2019-03-24T17:03:02.370Z,98584.02
2019-03-24T17:05:34.005Z,98585.78
2019-03-24T17:08:05.251Z,98585.84
2019-03-24T17:10:36.012Z,98579.47
2019-03-24T17:13:07.027Z,98589.92
2019-03-24T17:15:37.813Z,98587.87
2019-03-24T17:18:08.725Z,98587.03
2019-03-24T17:20:39.637Z,98589.47
2019-03-24T17:23:10.456Z,98586.97
2019-03-24T17:25:41.279Z,98589.45
2019-03-24T17:28:12.319Z,98589.23
2019-03-24T17:30:43.125Z,98587.14
2019-03-24T17:33:13.889Z,98592.68
2019-03-24T17:35:44.640Z,98595.48
2019-03-24T17:38:15.357Z,98595.00
2019-03-24T17:40:46.506Z,98593.34
2019-03-24T17:43:17.305Z,98604.50
2019-03-24T17:45:49.066Z,98604.67
2019-03-24T17:48:19.852Z,98600.72
2019-03-24T17:50:50.562Z,98601.05
2019-03-24T17:53:21.550Z,98605.13
2019-03-24T17:55:52.341Z,98608.16
2019-03-24T17:58:23.148Z,98611.04
2019-03-24T18:00:55.940Z,98608.61
2019-03-24T18:03:26.754Z,98617.27
2019-03-24T18:05:59.562Z,98615.16
2019-03-24T18:08:30.105Z,98622.29
2019-03-24T18:11:00.891Z,98616.30
2019-03-24T18:13:31.731Z,98621.86
2019-03-24T18:16:02.632Z,98632.34
2019-03-24T18:18:33.432Z,98628.78
2019-03-24T18:21:04.558Z,98626.38
2019-03-24T18:23:35.335Z,98634.77
2019-03-24T18:26:06.372Z,98632.80
2019-03-24T18:28:37.113Z,98639.94
2019-03-24T18:31:08.247Z,98634.74
2019-03-24T18:33:39.065Z,98639.74
2019-03-24T18:36:09.843Z,98640.09
2019-03-24T18:38:40.584Z,98633.97
2019-03-24T18:41:11.456Z,98634.20
2019-03-24T18:43:42.272Z,98635.51
2019-03-24T18:46:13.088Z,98634.27
2019-03-24T18:48:43.814Z,98632.77
2019-03-24T18:51:14.549Z,98639.20
2019-03-24T18:53:45.306Z,98636.41
2019-03-24T18:56:16.083Z,98646.17
2019-03-24T18:58:46.849Z,98655.48
2019-03-24T19:01:17.582Z,98653.91
2019-03-24T19:03:48.616Z,98650.34
2019-03-24T19:06:19.446Z,98648.09
2019-03-24T19:08:50.308Z,98649.17
2019-03-24T19:11:21.314Z,98648.55
2019-03-24T19:13:52.030Z,98648.64
2019-03-24T19:16:23.096Z,98648.08
2019-03-24T19:18:53.846Z,98653.41
2019-03-24T19:21:24.875Z,98652.14
2019-03-24T19:23:55.981Z,98651.20
2019-03-24T19:26:26.833Z,98651.41
2019-03-24T19:28:57.614Z,98649.23
2019-03-24T19:31:28.816Z,98648.48
2019-03-24T19:33:59.627Z,98645.01
2019-03-24T19:36:30.586Z,98651.44
2019-03-24T19:39:01.537Z,98655.64
2019-03-24T19:41:32.419Z,98654.09
2019-03-24T19:44:03.175Z,98650.35
2019-03-24T19:46:34.243Z,98643.06
2019-03-24T19:49:05.190Z,98640.78
2019-03-24T19:51:36.019Z,98638.91
2019-03-24T19:54:07.090Z,98636.81
2019-03-24T19:56:38.075Z,98636.81
2019-03-24T19:59:08.830Z,98643.94
2019-03-24T20:01:39.757Z,98648.38
2019-03-24T20:04:11.142Z,98645.37
2019-03-24T20:06:41.883Z,98633.92
2019-03-24T20:09:14.729Z,98635.55
2019-03-24T20:11:45.613Z,98637.64
2019-03-24T20:14:16.670Z,98632.26
2019-03-24T20:16:47.486Z,98629.04
2019-03-24T20:19:18.316Z,98632.05
2019-03-24T20:21:49.031Z,98629.23
2019-03-24T20:24:19.778Z,98633.20
2019-03-24T20:26:50.516Z,98619.86
2019-03-24T20:29:21.336Z,98619.17
2019-03-24T20:31:52.191Z,98627.48
2019-03-24T20:34:23.318Z,98630.16
2019-03-24T20:36:54.085Z,98629.77
2019-03-24T20:39:25.196Z,98626.38
2019-03-24T20:41:55.990Z,98626.49
2019-03-24T20:44:27.017Z,98621.08
2019-03-24T20:46:57.841Z,98617.14
2019-03-24T20:49:28.718Z,98618.12
2019-03-24T20:51:59.455Z,98620.96
2019-03-24T20:54:30.377Z,98625.03
2019-03-24T20:57:01.125Z,98620.59
2019-03-24T20:59:31.901Z,98623.91
2019-03-24T21:02:02.662Z,98619.91
2019-03-24T21:04:33.429Z,98623.28
2019-03-24T21:07:04.549Z,98617.22
2019-03-24T21:09:36.031Z,98610.72
2019-03-24T21:12:07.092Z,98599.87
2019-03-24T21:14:37.856Z,98603.14
2019-03-24T21:17:08.644Z,98604.92
2019-03-24T21:19:39.488Z,98608.30
2019-03-24T21:22:10.713Z,98609.41
2019-03-24T21:24:41.447Z,98612.90
2019-03-24T21:27:12.170Z,98609.06
2019-03-24T21:29:43.262Z,98601.39
2019-03-24T21:32:14.009Z,98606.63
2019-03-24T21:34:44.757Z,98606.47
2019-03-24T21:37:15.527Z,98608.20
2019-03-24T21:39:46.297Z,98608.31
2019-03-24T21:42:17.135Z,98608.25
2019-03-24T21:44:47.895Z,98613.73
2019-03-24T21:47:18.789Z,98622.11
2019-03-24T21:49:50.317Z,98616.36
2019-03-24T21:52:21.029Z,98608.08
2019-03-24T21:54:51.792Z,98615.37
2019-03-24T21:57:22.530Z,98616.34
2019-03-24T21:59:53.279Z,98615.71
2019-03-24T22:02:24.894Z,98618.06
2019-03-24T22:04:56.059Z,98614.73
2019-03-24T22:07:26.907Z,98607.93
2019-03-24T22:09:57.837Z,98611.41
2019-03-24T22:12:28.609Z,98603.67
2019-03-24T22:14:59.451Z,98603.67
2019-03-24T22:17:30.441Z,98607.79
2019-03-24T22:20:01.219Z,98605.09
2019-03-24T22:22:32.157Z,98603.67
2019-03-24T22:25:02.942Z,98601.13
2019-03-24T22:27:33.778Z,98596.08
2019-03-24T22:30:04.867Z,98593.69
2019-03-24T22:32:35.687Z,98587.83
2019-03-24T22:35:06.672Z,98581.98
2019-03-24T22:37:37.402Z,98582.78
2019-03-24T22:40:09.439Z,98585.36
2019-03-24T22:42:40.162Z,98587.57
2019-03-24T22:45:11.217Z,98581.51
2019-03-24T22:47:42.002Z,98588.36
2019-03-24T22:50:14.686Z,98591.72
2019-03-24T22:52:45.499Z,98589.84
2019-03-24T22:55:16.975Z,98592.39
2019-03-24T22:57:47.751Z,98583.34
2019-03-24T23:00:23.352Z,98584.95
2019-03-24T23:02:54.506Z,98581.33
2019-03-24T23:05:25.541Z,98584.66
2019-03-24T23:07:56.277Z,98586.92
2019-03-24T23:10:27.681Z,98589.95
2019-03-24T23:12:58.491Z,98589.34
2019-03-24T23:15:29.457Z,98583.33
2019-03-24T23:18:00.178Z,98589.67
2019-03-24T23:20:31.102Z,98588.89
2019-03-24T23:23:01.919Z,98582.41
2019-03-24T23:25:32.686Z,98589.09
2019-03-24T23:28:03.414Z,98582.11
2019-03-24T23:30:34.166Z,98584.49
2019-03-24T23:33:05.047Z,98573.54
2019-03-24T23:35:35.947Z,98579.58
2019-03-24T23:38:06.921Z,98581.63
2019-03-24T23:40:37.669Z,98575.77
2019-03-24T23:43:08.750Z,98576.72
2019-03-24T23:45:39.565Z,98573.25
2019-03-24T23:48:10.329Z,98572.61
2019-03-24T23:50:41.095Z,98570.07
2019-03-24T23:53:11.800Z,98571.62
2019-03-24T23:55:42.635Z,98564.66
2019-03-24T23:58:13.357Z,98563.09
